Stations météo

réclame
Mon MeteoGroup
Pian Rosa, Italie (16052): Température de l'air & dewpoint: 15.02.2018 11:00:00 - 21.02.2018 11:00:00 (CET)Pian Rosa, Italie (16052): Vitesse du vent: 15.02.2018 11:00:00 - 21.02.2018 11:00:00 (CET)Pian Rosa, Italie (16052): Direction du vent: 15.02.2018 11:00:00 - 21.02.2018 11:00:00 (CET)Pian Rosa, Italie (16052): visibility: 15.02.2018 11:00:00 - 21.02.2018 11:00:00 (CET)Pian Rosa, Italie (16052): Ensoleillement: 15.02.2018 11:00:00 - 21.02.2018 11:00:00 (CET)
Date & Time tt [°C] td [°C] ff [km/h] ff [knt] dd vv [km] sd [min]
21.02.2018 11:00:00 -14,6 -16,3 28 15 E 50 60
21.02.2018 10:00:00 -16,2 -17,8 28 15 E 50 60
21.02.2018 09:00:00 -15,8 -17,3 28 15 E 50 6
21.02.2018 08:00:00 -16,0 -17,7 37 20 E 50 -
21.02.2018 07:00:00 -17,8 -19,6 28 15 E 30 -
21.02.2018 06:00:00 -18,2 -20,0 37 20 ENE 10 -
21.02.2018 05:00:00 -18,8 -20,4 37 20 ENE 10 -
21.02.2018 04:00:00 -18,4 -20,0 37 20 ENE 10 -
21.02.2018 03:00:00 -18,0 -19,6 18 10 ENE 10 -
21.02.2018 02:00:00 -18,0 -19,6 28 15 ENE 10 -
21.02.2018 01:00:00 -17,8 -19,4 28 15 ENE 10 -
21.02.2018 00:00:00 -18,0 -19,6 28 15 ENE 10 -
20.02.2018 23:00:00 -17,8 -19,4 28 15 ENE 10 -
20.02.2018 22:00:00 -17,4 -19,0 37 20 ENE 0,6 -
20.02.2018 21:00:00 -17,2 -18,7 37 20 NE 0,3 -
20.02.2018 20:00:00 -16,8 -18,3 28 15 ENE 10 -
20.02.2018 19:00:00 -16,6 -18,1 37 20 ENE 0,8 0
20.02.2018 18:00:00 -16,0 -17,4 46 25 NE 0,1 0
20.02.2018 17:00:00 -16,0 -17,4 46 25 NE 0,1 0
20.02.2018 16:00:00 -16,0 -17,4 35 19 NE 0,1 0
20.02.2018 15:00:00 -16,0 -17,4 28 15 NNE 0,1 54
20.02.2018 14:00:00 -16,0 -17,5 28 15 NE 10 60
20.02.2018 13:00:00 -16,0 -17,7 37 20 NE 10 60
20.02.2018 12:00:00 -16,2 -17,7 37 20 ENE 3,0 12
20.02.2018 11:00:00 -16,0 -17,4 46 25 NE 0,6 0
20.02.2018 10:00:00 -16,0 -17,2 37 20 NE 0,2 0
20.02.2018 09:00:00 -15,6 -16,7 46 25 N 0,3 0
20.02.2018 08:00:00 -15,4 -16,5 37 20 ENE 0,2 0
20.02.2018 07:00:00 -15,6 -16,6 46 25 NE 0,3 -
20.02.2018 06:00:00 -15,4 -16,4 37 20 NE 0,5 -
20.02.2018 05:00:00 -15,2 -16,1 37 20 NNE 0,8 -
20.02.2018 04:00:00 -14,8 -16,8 37 20 NE 0,8 -
20.02.2018 03:00:00 -15,2 -22,4 26 14 NE 7 -
20.02.2018 02:00:00 -14,2 -19,3 24 13 NE 10 -
20.02.2018 01:00:00 -14,4 -25,1 26 14 NE 10 -
20.02.2018 00:00:00 -14,6 -30,0 37 20 ENE 10 -
19.02.2018 23:00:00 -14,2 -30,0 37 20 NNE 10 -
19.02.2018 22:00:00 -14,0 -30,0 37 20 NNE 10 -
19.02.2018 21:00:00 -13,4 -30,0 37 20 NNE 10 -
19.02.2018 20:00:00 -13,4 -30,0 46 25 NNE 10 -
19.02.2018 19:00:00 -13,4 -30,0 55 30 NNE 20 -
19.02.2018 18:00:00 -13,4 -30,0 55 30 NE 30 60
19.02.2018 17:00:00 -13,0 -30,0 55 30 NE 50 60
19.02.2018 16:00:00 -12,6 -30,0 46 25 NE 50 60
19.02.2018 15:00:00 -12,4 -30,0 46 25 NE 50 60
19.02.2018 14:00:00 -12,4 -30,0 37 20 NE 50 60
19.02.2018 13:00:00 -12,4 -30,0 37 20 ENE 50 60
19.02.2018 12:00:00 -12,4 -30,0 37 20 ENE 50 60
19.02.2018 11:00:00 -12,2 -30,0 37 20 ENE 50 60
19.02.2018 10:00:00 -12,6 -30,0 37 20 ENE 50 60
19.02.2018 09:00:00 -12,0 -30,0 31 17 ENE 50 6
19.02.2018 08:00:00 -12,4 -30,0 37 20 ENE 50 -
19.02.2018 07:00:00 -12,4 -30,0 37 20 ENE 30 -
19.02.2018 06:00:00 -13,0 -29,8 37 20 ENE 10 -
19.02.2018 05:00:00 -13,2 -28,3 37 20 ENE 10 -
19.02.2018 04:00:00 -14,0 -22,9 37 20 NE 10 -
19.02.2018 03:00:00 -14,2 -20,7 28 15 NE 10 -
19.02.2018 02:00:00 -14,0 -21,1 28 15 NE 10 -
19.02.2018 01:00:00 -13,8 -20,7 18 10 NE 10 -
19.02.2018 00:00:00 -13,8 -20,1 18 10 ENE 10 -
18.02.2018 23:00:00 -13,2 -19,7 9 5 NNE 10 -
18.02.2018 22:00:00 -12,6 -18,4 0 0 N 10 -
18.02.2018 21:00:00 -12,2 -16,9 4 2 W 10 -
18.02.2018 20:00:00 -12,0 -15,7 0 0 N 10 -
18.02.2018 19:00:00 -11,2 -14,6 0 0 N 10 6
18.02.2018 18:00:00 -10,6 -13,5 0 0 N 30 60
18.02.2018 17:00:00 -9,8 -12,6 5 3 SW 20 24
18.02.2018 16:00:00 -9,8 -12,3 5 3 SW 3,0 30
18.02.2018 15:00:00 -9,8 -12,3 5 3 SW 10 60
18.02.2018 14:00:00 -10,2 -12,7 5 3 SW 10 60
18.02.2018 13:00:00 -10,2 -14,0 0 0 N 80 60
18.02.2018 12:00:00 -11,4 -13,7 0 0 N 80 60
18.02.2018 11:00:00 -12,6 -14,3 5 3 ENE 80 60
18.02.2018 10:00:00 -14,0 -15,7 18 10 ENE 80 18
18.02.2018 09:00:00 -14,0 -15,5 28 15 ENE 60 0
18.02.2018 08:00:00 -13,8 -15,4 9 5 ENE 60 -
18.02.2018 07:00:00 -13,8 -15,4 9 5 ENE 25 -
18.02.2018 06:00:00 -13,8 -15,4 18 10 ENE 0,1 -
18.02.2018 05:00:00 -14,0 -15,5 28 15 NE 0,1 -
18.02.2018 04:00:00 -13,6 -15,1 31 17 NE 0,1 -
18.02.2018 03:00:00 -13,4 -14,8 29 16 NE 0,1 -
18.02.2018 02:00:00 -13,0 -14,3 28 15 NE 0,1 -
18.02.2018 01:00:00 -13,0 -14,3 21 11 NE 0,5 -
18.02.2018 00:00:00 -12,6 -13,9 16 9 ENE 0,1 -
17.02.2018 23:00:00 -12,2 -13,4 22 12 N 0,8 -
17.02.2018 22:00:00 -11,8 -12,7 18 10 NE 0,1 -
17.02.2018 21:00:00 -11,0 -11,6 18 10 NE 0,1 -
17.02.2018 20:00:00 -10,2 -10,8 18 10 NE 0,1 -
17.02.2018 19:00:00 -9,2 -9,7 9 5 ENE 0,1 -
17.02.2018 18:00:00 -8,8 -10,1 18 10 NE 0,1 0
17.02.2018 17:00:00 -6,4 -7,9 9 5 SSW 0,1 0
17.02.2018 16:00:00 -6,8 -8,0 28 15 SSW 0,8 0
17.02.2018 15:00:00 -6,8 -8,0 24 13 SSW 0,1 0
17.02.2018 14:00:00 -6,2 -7,0 28 15 SSW 10 0
17.02.2018 13:00:00 -6,0 -6,7 46 25 SSW 0,1 0
17.02.2018 12:00:00 -6,2 -6,5 41 22 SSW 0,1 0
17.02.2018 11:00:00 -6,2 -6,9 48 26 SSW 0,1 0
17.02.2018 10:00:00 -6,6 -6,9 31 17 SSW 0,1 0
17.02.2018 09:00:00 -6,8 -7,1 42 23 SSW 15 -
17.02.2018 08:00:00 -7,0 -7,4 35 19 SSW 0,5 -
17.02.2018 07:00:00 -7,0 -7,0 26 14 SSW 0,3 -
17.02.2018 06:00:00 -6,8 -6,8 28 15 SSW 0,3 -
17.02.2018 05:00:00 -7,0 -7,3 18 10 SSW 0,8 -
17.02.2018 04:00:00 -7,0 -8,6 18 10 SSW 0,1 -
17.02.2018 03:00:00 -6,8 -7,7 18 10 SSW 10 -
17.02.2018 02:00:00 -6,8 -7,9 9 5 SW 9 -
17.02.2018 01:00:00 -6,2 -10,3 18 10 SSW 6 -
17.02.2018 00:00:00 -6,0 -11,1 18 10 SW 10 -
16.02.2018 23:00:00 -6,8 -10,6 18 10 SSW 10 -
16.02.2018 22:00:00 -6,8 -11,5 18 10 S 10 -
16.02.2018 21:00:00 -6,8 -10,5 9 5 S 10 -
16.02.2018 20:00:00 -6,4 -11,7 4 2 - 10 -
16.02.2018 19:00:00 -6,8 -11,7 13 7 W 10 -
16.02.2018 18:00:00 -6,6 -11,5 11 6 WNW 20 60
16.02.2018 17:00:00 -6,0 -12,9 28 15 WNW 30 60
16.02.2018 16:00:00 -5,8 -10,4 28 15 W 20 60
16.02.2018 15:00:00 -5,8 -10,2 37 20 W 10 60
16.02.2018 14:00:00 -5,6 -10,5 34 18 W 8 54
16.02.2018 13:00:00 -5,6 -9,0 26 14 WNW 1,5 60
16.02.2018 12:00:00 -5,2 -8,3 18 10 WNW 1,0 60
16.02.2018 11:00:00 -5,8 -9,8 37 20 WNW 1,5 30
16.02.2018 10:00:00 -6,2 -8,5 18 10 NW 1,5 0
16.02.2018 09:00:00 -6,6 -8,5 28 15 W 0,1 0
16.02.2018 08:00:00 -7,0 -8,8 46 25 N 0,1 0
16.02.2018 07:00:00 -6,6 -8,6 18 10 N 0,5 -
16.02.2018 06:00:00 -6,2 -8,6 18 10 NW 0,8 -
16.02.2018 05:00:00 -5,8 -8,1 34 18 WNW 0,8 -
16.02.2018 04:00:00 -6,2 -8,6 24 13 W 0,8 -
16.02.2018 03:00:00 -6,8 -9,7 24 13 NNE 0,8 -
16.02.2018 02:00:00 -6,0 -8,7 15 8 W 0,8 -
16.02.2018 01:00:00 -6,0 -8,0 16 9 W 0,8 -
16.02.2018 00:00:00 -6,0 -7,8 29 16 W 0,8 -
15.02.2018 23:00:00 -6,2 -8,2 24 13 N 4,0 -
15.02.2018 22:00:00 -6,0 -8,6 39 21 NNW 10 -
15.02.2018 21:00:00 -5,8 -8,4 44 24 N 10 -
15.02.2018 20:00:00 -6,8 -9,2 46 25 N 0,8 -
15.02.2018 19:00:00 -6,0 -7,5 55 30 N 0,8 -
15.02.2018 18:00:00 -6,0 -7,8 46 25 N 0,5 0
15.02.2018 17:00:00 -4,4 -6,4 46 25 N 0,8 0
15.02.2018 16:00:00 -5,0 -6,5 55 30 N 0,1 0
15.02.2018 15:00:00 -5,2 -5,6 46 25 NNW 0,1 0
15.02.2018 14:00:00 -4,8 -4,8 46 25 NNW 0,1 0
15.02.2018 13:00:00 -4,6 -4,6 37 20 NW 0,1 0
15.02.2018 12:00:00 -4,8 -4,8 52 28 NNW 0,1 0
15.02.2018 11:00:00 -5,2 -5,2 41 22 NNW 0,1 0

tt = Température de l'air
td = dewpoint
ff = Vitesse du vent
dd = Direction du vent
vv = visibility
sd = Ensoleillement

stations d'obs. à proximité